createdAt,value
2023-05-15T00:00:23.676Z,1.40
2023-05-15T00:05:27.885Z,1.52
2023-05-15T00:10:30.744Z,2.00
2023-05-15T00:15:33.593Z,1.23
2023-05-15T00:20:37.730Z,2.03
2023-05-15T00:25:40.579Z,1.33
2023-05-15T00:30:43.423Z,1.17
2023-05-15T00:35:47.665Z,2.47
2023-05-15T00:40:51.076Z,1.52
2023-05-15T00:45:55.328Z,1.25
2023-05-15T00:51:00.950Z,1.27
2023-05-15T00:56:04.862Z,1.20
2023-05-15T01:01:08.667Z,1.77
2023-05-15T01:06:13.441Z,1.55
2023-05-15T01:11:18.321Z,1.30
2023-05-15T01:16:23.097Z,1.35
2023-05-15T01:21:48.077Z,3.83
2023-05-15T01:27:23.797Z,1.23
2023-05-15T01:32:35.400Z,1.27
2023-05-15T01:37:45.009Z,1.30
2023-05-15T01:42:55.254Z,1.58
2023-05-15T01:48:00.619Z,2.13
2023-05-15T01:53:04.894Z,2.67
2023-05-15T01:58:10.072Z,1.42
2023-05-15T02:03:13.913Z,3.58
2023-05-15T02:08:17.439Z,1.45
2023-05-15T02:13:22.782Z,1.60
2023-05-15T02:18:25.655Z,1.63
2023-05-15T02:23:28.553Z,1.30
2023-05-15T02:28:39.851Z,1.70
2023-05-15T02:33:52.167Z,1.75
2023-05-15T02:38:56.605Z,1.33
2023-05-15T02:44:02.434Z,1.98
2023-05-15T02:49:05.809Z,1.52
2023-05-15T02:54:09.668Z,1.30
2023-05-15T02:59:18.686Z,1.35
2023-05-15T03:04:21.991Z,1.30
2023-05-15T03:09:25.397Z,2.05
2023-05-15T03:14:29.609Z,1.70
2023-05-15T03:19:32.509Z,1.60
2023-05-15T03:24:35.414Z,2.10
2023-05-15T03:29:39.560Z,2.78
2023-05-15T03:34:42.386Z,1.90
2023-05-15T03:39:45.291Z,2.22
2023-05-15T03:44:49.469Z,1.70
2023-05-15T03:49:52.362Z,1.73
2023-05-15T03:54:55.249Z,2.53
2023-05-15T03:59:59.429Z,1.48
2023-05-15T04:05:02.520Z,1.50
2023-05-15T04:10:06.098Z,1.75
2023-05-15T04:15:18.138Z,1.30
2023-05-15T04:20:21.996Z,1.63
2023-05-15T04:25:25.664Z,1.73
2023-05-15T04:30:30.224Z,3.28
2023-05-15T04:35:33.130Z,2.08
2023-05-15T04:40:35.946Z,2.35
2023-05-15T04:45:40.185Z,3.50
2023-05-15T04:50:42.994Z,1.83
2023-05-15T04:55:45.915Z,3.85
2023-05-15T05:00:50.111Z,1.83
2023-05-15T05:05:53.266Z,2.20
2023-05-15T05:10:59.258Z,1.63
2023-05-15T05:16:03.531Z,1.75
2023-05-15T05:21:06.547Z,3.03
2023-05-15T05:26:09.382Z,2.10
2023-05-15T05:31:13.619Z,1.27
2023-05-15T05:36:16.611Z,2.15
2023-05-15T05:41:19.447Z,1.65
2023-05-15T05:46:23.671Z,11.45
2023-05-15T05:51:26.585Z,3.72
2023-05-15T05:56:29.621Z,3.75
2023-05-15T06:01:33.879Z,4.30
2023-05-15T06:06:36.722Z,4.55
2023-05-15T06:11:39.533Z,3.97
2023-05-15T06:16:43.920Z,4.10
2023-05-15T06:21:46.794Z,3.85
2023-05-15T06:26:50.534Z,3.78
2023-05-15T06:31:56.065Z,3.65
2023-05-15T06:36:58.996Z,3.15
2023-05-15T06:42:01.996Z,5.07
2023-05-15T06:47:07.134Z,3.72
2023-05-15T06:52:10.203Z,4.28
2023-05-15T06:57:13.057Z,7.53
2023-05-15T07:02:17.283Z,2.85
2023-05-15T07:07:20.194Z,3.97
2023-05-15T07:12:23.141Z,3.42
2023-05-15T07:17:27.431Z,2.85
2023-05-15T07:22:31.469Z,4.13
2023-05-15T07:27:35.657Z,6.05
2023-05-15T07:32:39.815Z,6.03
2023-05-15T07:37:42.692Z,3.63
2023-05-15T07:42:47.050Z,5.00
2023-05-15T07:47:51.437Z,3.40
2023-05-15T07:52:54.320Z,5.35
2023-05-15T07:57:57.125Z,5.13
2023-05-15T08:03:01.821Z,4.82
2023-05-15T08:08:04.821Z,3.92
2023-05-15T08:13:08.809Z,5.10
2023-05-15T08:18:12.983Z,3.42
2023-05-15T08:23:15.912Z,3.90
2023-05-15T08:28:18.786Z,4.13
2023-05-15T08:33:22.966Z,3.97
2023-05-15T08:38:25.850Z,3.97
2023-05-15T08:43:32.321Z,2.60
2023-05-15T08:48:38.463Z,3.22
2023-05-15T08:53:41.393Z,4.78
2023-05-15T08:58:45.583Z,3.95
2023-05-15T09:03:49.822Z,4.65
2023-05-15T09:08:55.187Z,3.50
2023-05-15T09:13:59.352Z,3.50
2023-05-15T09:19:04.361Z,3.83
2023-05-15T09:24:21.597Z,3.45
2023-05-15T09:29:28.938Z,3.35
2023-05-15T09:34:35.708Z,2.80
2023-05-15T09:39:43.148Z,3.88
2023-05-15T09:44:47.154Z,2.63
2023-05-15T09:49:53.486Z,3.67
2023-05-15T09:54:57.138Z,2.80
2023-05-15T10:00:09.975Z,3.03
2023-05-15T10:05:14.154Z,3.15
2023-05-15T10:10:17.099Z,2.10
2023-05-15T10:15:21.543Z,2.58
2023-05-15T10:20:27.148Z,1.48
2023-05-15T10:25:36.330Z,2.40
2023-05-15T10:30:39.802Z,2.47
2023-05-15T10:35:44.255Z,1.88
2023-05-15T10:40:47.609Z,2.35
2023-05-15T10:45:52.649Z,2.30
2023-05-15T10:50:56.851Z,1.42
2023-05-15T10:56:00.219Z,2.10
2023-05-15T11:01:03.156Z,1.85
2023-05-15T11:06:11.735Z,2.00
2023-05-15T11:11:44.337Z,2.40
2023-05-15T11:17:07.286Z,1.60
2023-05-15T11:22:22.966Z,2.42
2023-05-15T11:27:27.549Z,1.98
2023-05-15T11:32:33.967Z,1.85
2023-05-15T11:37:42.870Z,3.35
2023-05-15T11:43:03.897Z,2.22
2023-05-15T11:48:08.231Z,2.15
2023-05-15T11:53:13.097Z,2.60
2023-05-15T11:58:17.162Z,2.35
2023-05-15T12:03:34.285Z,1.63
2023-05-15T12:08:38.803Z,2.47
2023-05-15T12:13:41.652Z,1.77
2023-05-15T12:18:44.514Z,1.45
2023-05-15T12:24:06.421Z,1.58
2023-05-15T12:29:10.904Z,1.50
2023-05-15T12:34:13.854Z,1.63
2023-05-15T12:39:18.133Z,1.67
2023-05-15T12:44:21.421Z,2.17
2023-05-15T12:49:24.834Z,1.40
2023-05-15T12:54:29.064Z,1.58
2023-05-15T12:59:32.706Z,2.33
2023-05-15T13:04:35.592Z,1.63
2023-05-15T13:09:39.744Z,1.77
2023-05-15T13:14:43.509Z,1.30
2023-05-15T13:19:46.335Z,1.40
2023-05-15T13:24:52.560Z,2.65
2023-05-15T13:29:55.580Z,1.95
2023-05-15T13:34:58.801Z,1.95
2023-05-15T13:40:06.263Z,1.25
2023-05-15T13:45:12.574Z,1.67
2023-05-15T13:50:16.729Z,1.35
2023-05-15T13:55:22.724Z,1.50
2023-05-15T14:00:26.539Z,2.28
2023-05-15T14:05:29.686Z,1.38
2023-05-15T14:10:33.886Z,1.50
2023-05-15T14:15:36.731Z,1.83
2023-05-15T14:20:39.602Z,1.55
2023-05-15T14:25:43.793Z,1.70
2023-05-15T14:30:46.633Z,1.85
2023-05-15T14:35:49.662Z,1.17
2023-05-15T14:40:53.912Z,1.20
2023-05-15T14:45:56.958Z,1.63
2023-05-15T14:51:01.472Z,2.05
2023-05-15T14:56:06.592Z,2.30
2023-05-15T15:01:09.503Z,1.20
2023-05-15T15:06:13.023Z,2.58
2023-05-15T15:11:17.269Z,1.08
2023-05-15T15:16:20.100Z,1.75
2023-05-15T15:21:22.951Z,2.20
2023-05-15T15:26:27.192Z,1.52
2023-05-15T15:31:30.534Z,1.70
2023-05-15T15:36:33.494Z,1.20
2023-05-15T15:41:39.546Z,1.25
2023-05-15T15:46:42.391Z,1.20
2023-05-15T15:51:45.287Z,1.20
2023-05-15T15:56:49.720Z,1.13
2023-05-15T16:01:52.621Z,1.10
2023-05-15T16:06:55.778Z,1.25
2023-05-15T16:12:00.607Z,1.17
2023-05-15T16:17:03.737Z,1.10
2023-05-15T16:22:07.094Z,1.10
2023-05-15T16:27:11.305Z,2.05
2023-05-15T16:32:15.149Z,2.33
2023-05-15T16:37:17.983Z,1.10
2023-05-15T16:42:22.150Z,2.58
2023-05-15T16:47:25.422Z,1.20
2023-05-15T16:52:28.348Z,2.80
2023-05-15T16:57:32.635Z,3.40
2023-05-15T17:02:35.777Z,2.97
2023-05-15T17:07:39.507Z,3.25
2023-05-15T17:12:43.702Z,2.35
2023-05-15T17:17:46.630Z,4.38
2023-05-15T17:22:49.497Z,3.67
2023-05-15T17:27:53.691Z,7.35
2023-05-15T17:32:56.837Z,49.72
2023-05-15T17:37:59.734Z,80.85
2023-05-15T17:43:03.935Z,188.32
2023-05-15T17:48:07.327Z,193.70
2023-05-15T17:53:10.362Z,241.10
2023-05-15T17:58:14.576Z,231.98
2023-05-15T18:03:17.676Z,202.95
2023-05-15T18:08:20.598Z,211.65
2023-05-15T18:13:24.834Z,198.15
2023-05-15T18:18:27.660Z,167.65
2023-05-15T18:23:30.545Z,156.13
2023-05-15T18:28:34.727Z,158.32
2023-05-15T18:33:38.222Z,158.38
2023-05-15T18:38:41.063Z,148.65
2023-05-15T18:43:45.325Z,137.85
2023-05-15T18:48:48.171Z,132.02
2023-05-15T18:53:51.081Z,124.80
2023-05-15T18:58:55.376Z,125.32
2023-05-15T19:03:58.413Z,127.60
2023-05-15T19:09:01.262Z,101.47
2023-05-15T19:14:05.529Z,106.88
2023-05-15T19:19:08.445Z,88.68
2023-05-15T19:24:11.509Z,87.43
2023-05-15T19:29:15.747Z,72.45
2023-05-15T19:34:18.735Z,59.70
2023-05-15T19:39:21.653Z,58.42
2023-05-15T19:44:25.870Z,56.22
2023-05-15T19:49:28.861Z,44.90
2023-05-15T19:54:31.778Z,40.15
2023-05-15T19:59:35.997Z,37.47
2023-05-15T20:04:39.244Z,31.83
2023-05-15T20:09:42.101Z,33.70
2023-05-15T20:14:51.769Z,29.70
2023-05-15T20:19:54.702Z,26.25
2023-05-15T20:24:57.543Z,25.63
2023-05-15T20:30:02.796Z,22.85
2023-05-15T20:35:06.845Z,23.20
2023-05-15T20:40:12.779Z,23.25
2023-05-15T20:45:17.227Z,21.48
2023-05-15T20:50:20.765Z,18.85
2023-05-15T20:55:23.798Z,16.35
2023-05-15T21:00:28.338Z,15.95
2023-05-15T21:05:31.378Z,16.08
2023-05-15T21:10:34.243Z,12.85
2023-05-15T21:15:38.570Z,12.82
2023-05-15T21:20:41.764Z,11.95
2023-05-15T21:25:44.936Z,11.48
2023-05-15T21:30:49.099Z,9.77
2023-05-15T21:35:52.653Z,10.55
2023-05-15T21:40:55.508Z,7.30
2023-05-15T21:45:59.741Z,7.57
2023-05-15T21:51:02.633Z,8.68
2023-05-15T21:56:05.943Z,7.93
2023-05-15T22:01:10.095Z,7.20
2023-05-15T22:06:12.971Z,6.20
2023-05-15T22:11:16.532Z,8.55
2023-05-15T22:16:20.991Z,5.97
2023-05-15T22:21:23.867Z,7.90
2023-05-15T22:26:26.682Z,5.07
2023-05-15T22:31:31.006Z,5.00
2023-05-15T22:36:35.091Z,4.50
2023-05-15T22:41:37.942Z,5.47
2023-05-15T22:46:42.623Z,3.60
2023-05-15T22:51:45.563Z,3.95
2023-05-15T22:56:48.879Z,3.78
2023-05-15T23:01:53.221Z,3.28
2023-05-15T23:06:56.981Z,3.33
2023-05-15T23:12:00.613Z,4.18
2023-05-15T23:17:05.072Z,4.18
2023-05-15T23:22:07.863Z,4.15
2023-05-15T23:27:10.739Z,3.00
2023-05-15T23:32:14.905Z,2.28
2023-05-15T23:37:17.744Z,3.35
2023-05-15T23:42:20.573Z,2.53
2023-05-15T23:47:24.765Z,2.10
2023-05-15T23:52:27.596Z,3.40
2023-05-15T23:57:30.465Z,2.50
